createdAt,value
2022-10-06T00:01:02.914Z,8.50
2022-10-06T00:03:31.008Z,8.40
2022-10-06T00:06:02.445Z,8.41
2022-10-06T00:08:31.392Z,8.44
2022-10-06T00:10:58.917Z,8.44
2022-10-06T00:13:26.022Z,8.39
2022-10-06T00:15:52.752Z,8.37
2022-10-06T00:18:19.925Z,8.40
2022-10-06T00:20:53.909Z,8.41
2022-10-06T00:23:21.371Z,8.51
2022-10-06T00:25:47.846Z,8.56
2022-10-06T00:28:14.860Z,8.50
2022-10-06T00:30:41.936Z,8.47
2022-10-06T00:33:12.761Z,8.30
2022-10-06T00:35:40.053Z,8.26
2022-10-06T00:38:06.546Z,8.35
2022-10-06T00:40:33.942Z,8.32
2022-10-06T00:43:03.183Z,8.40
2022-10-06T00:45:37.592Z,8.45
2022-10-06T00:48:16.667Z,8.45
2022-10-06T00:50:44.320Z,8.34
2022-10-06T00:53:11.820Z,8.14
2022-10-06T00:55:38.349Z,8.11
2022-10-06T00:58:05.387Z,8.05
2022-10-06T01:00:33.466Z,8.00
2022-10-06T01:03:15.809Z,7.98
2022-10-06T01:05:47.468Z,7.98
2022-10-06T01:08:15.487Z,7.95
2022-10-06T01:10:42.871Z,7.97
2022-10-06T01:13:11.250Z,7.95
2022-10-06T01:15:44.458Z,7.95
2022-10-06T01:18:14.905Z,7.91
2022-10-06T01:20:47.132Z,7.93
2022-10-06T01:23:13.905Z,7.96
2022-10-06T01:25:41.561Z,7.89
2022-10-06T01:28:10.179Z,7.92
2022-10-06T01:30:57.802Z,7.91
2022-10-06T01:33:24.540Z,7.94
2022-10-06T01:35:52.922Z,7.94
2022-10-06T01:38:20.240Z,7.95
2022-10-06T01:40:52.059Z,7.95
2022-10-06T01:43:19.542Z,7.94
2022-10-06T01:45:53.015Z,7.93
2022-10-06T01:48:19.691Z,7.90
2022-10-06T01:50:47.436Z,7.82
2022-10-06T01:53:13.944Z,7.74
2022-10-06T01:55:41.572Z,7.68
2022-10-06T01:58:09.813Z,7.68
2022-10-06T02:00:36.790Z,7.57
2022-10-06T02:03:03.408Z,7.60
2022-10-06T02:05:29.874Z,7.69
2022-10-06T02:07:56.475Z,7.73
2022-10-06T02:10:23.969Z,7.70
2022-10-06T02:12:52.936Z,7.71
2022-10-06T02:15:21.794Z,7.75
2022-10-06T02:17:48.600Z,7.77
2022-10-06T02:20:15.937Z,7.74
2022-10-06T02:22:43.770Z,7.65
2022-10-06T02:25:14.684Z,7.58
2022-10-06T02:27:41.386Z,7.57
2022-10-06T02:30:10.743Z,7.49
2022-10-06T02:32:39.694Z,7.47
2022-10-06T02:35:09.036Z,7.42
2022-10-06T02:37:35.743Z,7.36
2022-10-06T02:40:02.817Z,7.40
2022-10-06T02:42:30.993Z,7.43
2022-10-06T02:44:59.017Z,7.45
2022-10-06T02:47:25.895Z,7.36
2022-10-06T02:49:53.561Z,7.37
2022-10-06T02:52:20.154Z,7.33
2022-10-06T02:54:48.010Z,7.37
2022-10-06T02:57:15.350Z,7.31
2022-10-06T02:59:42.983Z,7.30
2022-10-06T03:02:09.795Z,7.36
2022-10-06T03:04:36.572Z,7.28
2022-10-06T03:07:03.370Z,7.29
2022-10-06T03:09:35.082Z,7.32
2022-10-06T03:12:01.823Z,7.31
2022-10-06T03:14:39.988Z,7.30
2022-10-06T03:17:11.383Z,7.29
2022-10-06T03:19:44.659Z,7.20
2022-10-06T03:22:11.136Z,7.31
2022-10-06T03:24:51.302Z,7.18
2022-10-06T03:27:17.789Z,7.16
2022-10-06T03:29:46.029Z,7.14
2022-10-06T03:32:13.521Z,7.09
2022-10-06T03:34:40.328Z,7.16
2022-10-06T03:37:10.375Z,7.12
2022-10-06T03:39:36.814Z,7.16
2022-10-06T03:42:03.572Z,7.18
2022-10-06T03:44:32.286Z,7.10
2022-10-06T03:46:58.994Z,7.09
2022-10-06T03:49:28.493Z,7.14
2022-10-06T03:51:55.259Z,7.14
2022-10-06T03:54:27.378Z,7.19
2022-10-06T03:56:54.416Z,7.19
2022-10-06T03:59:20.979Z,7.17
2022-10-06T04:01:50.023Z,7.17
2022-10-06T04:04:20.882Z,7.10
2022-10-06T04:06:51.388Z,7.14
2022-10-06T04:09:19.704Z,7.17
2022-10-06T04:11:47.970Z,7.16
2022-10-06T04:14:16.348Z,7.14
2022-10-06T04:16:49.449Z,7.08
2022-10-06T04:19:20.985Z,7.07
2022-10-06T04:21:53.488Z,7.03
2022-10-06T04:24:24.573Z,7.02
2022-10-06T04:26:52.426Z,6.89
2022-10-06T04:29:21.090Z,6.95
2022-10-06T04:31:52.507Z,7.00
2022-10-06T04:34:31.071Z,6.96
2022-10-06T04:36:57.869Z,6.96
2022-10-06T04:39:24.459Z,7.08
2022-10-06T04:41:50.923Z,7.16
2022-10-06T04:44:22.926Z,7.15
2022-10-06T04:46:49.808Z,7.08
2022-10-06T04:49:20.287Z,7.20
2022-10-06T04:51:49.752Z,7.34
2022-10-06T04:54:17.363Z,7.45
2022-10-06T04:56:44.948Z,7.47
2022-10-06T04:59:11.562Z,7.41
2022-10-06T05:01:41.005Z,7.54
2022-10-06T05:04:11.663Z,7.64
2022-10-06T05:06:41.207Z,7.46
2022-10-06T05:09:11.034Z,7.58
2022-10-06T05:11:40.308Z,7.61
2022-10-06T05:14:09.486Z,7.57
2022-10-06T05:16:39.630Z,7.53
2022-10-06T05:19:08.188Z,7.57
2022-10-06T05:21:37.499Z,7.59
2022-10-06T05:24:05.465Z,7.62
2022-10-06T05:26:35.000Z,7.69
2022-10-06T05:29:04.388Z,7.70
2022-10-06T05:31:33.270Z,7.69
2022-10-06T05:34:02.749Z,7.67
2022-10-06T05:36:31.866Z,7.68
2022-10-06T05:38:59.140Z,7.78
2022-10-06T05:41:29.979Z,7.95
2022-10-06T05:43:59.119Z,7.83
2022-10-06T05:46:28.751Z,7.80
2022-10-06T05:48:58.893Z,7.78
2022-10-06T05:51:31.380Z,7.80
2022-10-06T05:54:00.513Z,7.95
2022-10-06T05:56:29.875Z,7.90
2022-10-06T05:58:58.088Z,8.08
2022-10-06T06:01:31.705Z,8.22
2022-10-06T06:04:04.133Z,8.32
2022-10-06T06:06:39.297Z,8.44
2022-10-06T06:09:18.809Z,8.38
2022-10-06T06:11:49.783Z,8.56
2022-10-06T06:14:40.944Z,8.56
2022-10-06T06:17:08.478Z,8.75
2022-10-06T06:19:35.127Z,9.06
2022-10-06T06:22:01.785Z,9.15
2022-10-06T06:24:29.185Z,8.79
2022-10-06T06:26:55.717Z,8.68
2022-10-06T06:29:24.317Z,8.60
2022-10-06T06:31:51.355Z,8.55
2022-10-06T06:34:17.974Z,8.78
2022-10-06T06:36:46.953Z,8.87
2022-10-06T06:39:17.591Z,9.04
2022-10-06T06:41:46.441Z,8.99
2022-10-06T06:44:28.991Z,9.22
2022-10-06T06:47:02.650Z,9.17
2022-10-06T06:49:29.740Z,9.45
2022-10-06T06:52:04.725Z,9.24
2022-10-06T06:54:33.427Z,9.45
2022-10-06T06:57:09.904Z,9.55
2022-10-06T06:59:38.159Z,9.51
2022-10-06T07:02:06.660Z,9.53
2022-10-06T07:04:37.432Z,9.54
2022-10-06T07:07:05.790Z,9.66
2022-10-06T07:09:35.565Z,9.69
2022-10-06T07:12:11.478Z,9.80
2022-10-06T07:15:01.463Z,9.83
2022-10-06T07:17:48.457Z,9.94
2022-10-06T07:20:34.277Z,10.01
2022-10-06T07:23:19.598Z,10.04
2022-10-06T07:25:46.248Z,10.27
2022-10-06T07:28:16.877Z,10.32
2022-10-06T07:30:44.824Z,10.29
2022-10-06T07:33:15.414Z,10.42
2022-10-06T07:35:43.557Z,10.56
2022-10-06T07:38:10.969Z,10.88
2022-10-06T07:43:41.460Z,11.11
2022-10-06T07:46:11.188Z,10.97
2022-10-06T07:48:49.173Z,11.42
2022-10-06T07:51:18.759Z,11.86
2022-10-06T07:53:50.114Z,12.25
2022-10-06T07:56:25.774Z,12.22
2022-10-06T07:58:56.186Z,12.34
2022-10-06T08:01:22.817Z,12.42
2022-10-06T08:03:50.612Z,12.37
2022-10-06T08:06:18.863Z,12.61
2022-10-06T08:08:52.436Z,12.84
2022-10-06T08:11:20.119Z,13.28
2022-10-06T08:13:48.315Z,13.58
2022-10-06T08:16:20.648Z,13.81
2022-10-06T08:18:53.309Z,13.98
2022-10-06T08:21:23.346Z,13.84
2022-10-06T08:23:51.554Z,13.85
2022-10-06T08:26:20.169Z,14.08
2022-10-06T08:28:50.202Z,14.16
2022-10-06T08:31:18.679Z,14.47
2022-10-06T08:33:46.074Z,14.79
2022-10-06T08:36:16.679Z,15.21
2022-10-06T08:38:43.266Z,15.47
2022-10-06T08:41:32.673Z,15.45
2022-10-06T08:44:05.404Z,15.51
2022-10-06T08:46:39.737Z,15.91
2022-10-06T08:49:11.758Z,15.66
2022-10-06T08:51:54.686Z,15.87
2022-10-06T08:54:58.894Z,16.31
2022-10-06T08:57:52.532Z,16.32
2022-10-06T09:00:21.420Z,17.08
2022-10-06T09:02:49.957Z,16.69
2022-10-06T09:05:25.215Z,16.51
2022-10-06T09:08:19.421Z,17.16
2022-10-06T09:11:10.354Z,16.50
2022-10-06T09:13:53.102Z,16.45
2022-10-06T09:16:28.254Z,16.47
2022-10-06T09:19:14.728Z,16.82
2022-10-06T09:21:49.295Z,16.63
2022-10-06T09:24:18.863Z,17.05
2022-10-06T09:26:49.555Z,17.23
2022-10-06T09:29:16.702Z,16.76
2022-10-06T09:31:47.461Z,17.30
2022-10-06T09:34:21.558Z,17.06
2022-10-06T09:37:01.537Z,17.15
2022-10-06T09:39:33.244Z,17.14
2022-10-06T09:42:19.664Z,17.05
2022-10-06T09:45:03.971Z,16.89
2022-10-06T09:47:34.823Z,17.13
2022-10-06T09:50:20.372Z,17.28
2022-10-06T09:53:03.273Z,17.12
2022-10-06T09:55:43.001Z,16.78
2022-10-06T09:58:52.500Z,16.50
2022-10-06T10:01:25.009Z,16.58
2022-10-06T10:04:15.940Z,16.55
2022-10-06T10:06:41.682Z,16.12
2022-10-06T10:09:23.840Z,15.93
2022-10-06T10:12:31.234Z,15.98
2022-10-06T10:15:04.476Z,16.80
2022-10-06T10:33:11.186Z,16.16
2022-10-06T10:35:45.774Z,16.03
2022-10-06T10:38:19.460Z,16.37
2022-10-06T10:41:06.781Z,16.69
2022-10-06T10:43:45.502Z,16.55
2022-10-06T10:46:34.682Z,17.28
2022-10-06T10:49:07.968Z,17.72
2022-10-06T10:51:46.273Z,17.41
2022-10-06T10:54:18.846Z,16.77
2022-10-06T10:56:49.168Z,16.86
2022-10-06T10:59:23.275Z,16.38
2022-10-06T11:01:59.832Z,16.42
2022-10-06T11:04:26.915Z,16.91
2022-10-06T11:07:02.354Z,16.85
2022-10-06T11:09:40.701Z,17.08
2022-10-06T11:12:13.272Z,16.89
2022-10-06T11:14:45.671Z,17.09
2022-10-06T11:17:47.067Z,16.96
2022-10-06T11:20:45.958Z,17.54
2022-10-06T11:23:38.956Z,17.79
2022-10-06T11:26:28.486Z,17.95
2022-10-06T11:28:59.729Z,17.41
2022-10-06T11:31:44.389Z,17.54
2022-10-06T11:34:11.130Z,17.60
2022-10-06T11:36:43.928Z,17.46
2022-10-06T11:39:23.526Z,17.65
2022-10-06T11:42:00.374Z,17.41
2022-10-06T11:44:37.284Z,17.69
2022-10-06T11:47:10.677Z,17.75
2022-10-06T11:49:51.999Z,17.76
2022-10-06T11:52:18.754Z,17.88
2022-10-06T11:55:07.577Z,18.33
2022-10-06T11:57:35.232Z,17.83
2022-10-06T12:00:02.364Z,17.61
2022-10-06T12:02:33.546Z,17.68
2022-10-06T12:05:28.612Z,17.42
2022-10-06T12:07:55.739Z,17.58
2022-10-06T12:10:28.031Z,17.90
2022-10-06T12:13:31.728Z,17.79
2022-10-06T12:19:28.909Z,18.34
2022-10-06T12:22:26.033Z,17.80
2022-10-06T12:25:00.763Z,17.69
2022-10-06T12:27:44.061Z,17.70
2022-10-06T12:30:27.841Z,17.65
2022-10-06T12:32:59.277Z,17.81
2022-10-06T12:35:34.033Z,18.13
2022-10-06T12:38:05.887Z,18.34
2022-10-06T12:40:38.292Z,18.52
2022-10-06T12:43:17.489Z,18.98
2022-10-06T12:45:48.327Z,19.20
2022-10-06T12:48:57.268Z,18.91
2022-10-06T12:51:35.044Z,19.07
2022-10-06T12:54:24.979Z,18.83
2022-10-06T12:57:16.581Z,18.21
2022-10-06T12:59:43.320Z,18.12
2022-10-06T13:02:09.775Z,18.08
2022-10-06T13:04:40.843Z,18.26
2022-10-06T13:07:33.972Z,18.22
2022-10-06T13:10:15.557Z,17.99
2022-10-06T13:12:46.705Z,18.43
2022-10-06T13:15:16.651Z,18.41
2022-10-06T13:17:50.676Z,17.93
2022-10-06T13:20:24.454Z,18.20
2022-10-06T13:23:10.181Z,18.51
2022-10-06T13:25:44.175Z,18.12
2022-10-06T13:28:26.354Z,18.25
2022-10-06T13:30:58.835Z,18.81
2022-10-06T13:33:31.327Z,17.94
2022-10-06T13:35:58.754Z,18.04
2022-10-06T13:38:25.949Z,18.49
2022-10-06T13:41:17.323Z,18.27
2022-10-06T13:43:49.879Z,18.39
2022-10-06T13:46:20.835Z,18.21
2022-10-06T13:49:24.718Z,18.17
2022-10-06T13:51:56.897Z,18.25
2022-10-06T13:54:30.666Z,18.04
2022-10-06T13:56:58.730Z,18.15
2022-10-06T13:59:28.063Z,18.20
2022-10-06T14:01:56.000Z,18.04
2022-10-06T14:04:22.708Z,17.96
2022-10-06T14:06:56.032Z,18.18
2022-10-06T14:09:30.403Z,17.83
2022-10-06T14:12:12.534Z,17.57
2022-10-06T14:14:39.512Z,17.63
2022-10-06T14:17:06.238Z,17.68
2022-10-06T14:19:38.987Z,17.64
2022-10-06T14:22:26.327Z,17.24
2022-10-06T14:24:52.825Z,17.12
2022-10-06T14:27:19.214Z,17.04
2022-10-06T14:29:45.685Z,16.97
2022-10-06T14:32:18.109Z,16.89
2022-10-06T14:34:45.040Z,17.07
2022-10-06T14:37:17.618Z,17.36
2022-10-06T14:39:45.484Z,17.50
2022-10-06T14:42:14.401Z,17.23
2022-10-06T14:44:41.053Z,17.51
2022-10-06T14:47:09.222Z,17.24
2022-10-06T14:49:37.673Z,17.30
2022-10-06T14:52:05.541Z,17.33
2022-10-06T14:54:34.504Z,17.12
2022-10-06T14:57:01.113Z,16.97
2022-10-06T14:59:27.948Z,16.69
2022-10-06T15:01:54.593Z,16.83
2022-10-06T15:04:24.112Z,16.59
2022-10-06T15:07:09.866Z,16.72
2022-10-06T15:09:36.414Z,16.25
2022-10-06T15:12:03.296Z,16.26
2022-10-06T15:14:30.128Z,16.18
2022-10-06T15:16:59.962Z,16.18
2022-10-06T15:19:27.162Z,16.21
2022-10-06T15:21:54.494Z,16.24
2022-10-06T15:24:21.240Z,16.08
2022-10-06T15:27:06.880Z,16.04
2022-10-06T15:29:36.732Z,15.91
2022-10-06T15:32:06.591Z,15.73
2022-10-06T15:34:34.395Z,15.85
2022-10-06T15:37:01.466Z,15.90
2022-10-06T15:39:34.570Z,15.86
2022-10-06T15:42:01.322Z,15.83
2022-10-06T15:44:31.691Z,16.14
2022-10-06T15:46:58.425Z,15.80
2022-10-06T15:49:27.006Z,15.79
2022-10-06T15:51:56.743Z,15.51
2022-10-06T15:54:25.701Z,15.40
2022-10-06T15:56:54.613Z,15.21
2022-10-06T15:59:25.589Z,15.25
2022-10-06T16:01:56.872Z,15.25
2022-10-06T16:04:31.171Z,15.05
2022-10-06T16:06:58.691Z,14.95
2022-10-06T16:09:27.671Z,14.92
2022-10-06T16:11:55.913Z,15.07
2022-10-06T16:14:23.173Z,15.00
2022-10-06T16:16:50.229Z,14.76
2022-10-06T16:19:18.103Z,14.58
2022-10-06T16:21:48.397Z,14.61
2022-10-06T16:24:17.036Z,14.51
2022-10-06T16:26:43.728Z,14.19
2022-10-06T16:29:10.316Z,13.85
2022-10-06T16:31:36.755Z,13.79
2022-10-06T16:34:03.785Z,13.60
2022-10-06T16:36:30.484Z,13.49
2022-10-06T16:38:57.485Z,13.40
2022-10-06T16:41:24.428Z,13.35
2022-10-06T16:43:53.327Z,13.34
2022-10-06T16:46:22.682Z,13.26
2022-10-06T16:48:52.029Z,13.24
2022-10-06T16:51:19.643Z,13.20
2022-10-06T16:53:53.893Z,13.19
2022-10-06T16:56:22.122Z,13.17
2022-10-06T16:58:53.422Z,13.18
2022-10-06T17:01:47.567Z,13.20
2022-10-06T17:04:19.681Z,13.02
2022-10-06T17:06:47.460Z,12.92
2022-10-06T17:09:16.707Z,12.84
2022-10-06T17:11:55.268Z,12.66
2022-10-06T17:14:21.979Z,12.64
2022-10-06T17:16:50.871Z,12.57
2022-10-06T17:19:19.004Z,12.45
2022-10-06T17:21:48.042Z,12.45
2022-10-06T17:24:20.347Z,12.31
2022-10-06T17:26:49.050Z,12.26
2022-10-06T17:29:25.930Z,12.23
2022-10-06T17:31:56.259Z,12.21
2022-10-06T17:34:26.517Z,12.13
2022-10-06T17:36:57.280Z,12.26
2022-10-06T17:39:24.480Z,12.28
2022-10-06T17:41:53.426Z,12.30
2022-10-06T17:44:23.440Z,12.27
2022-10-06T17:46:52.372Z,12.27
2022-10-06T17:49:21.232Z,12.27
2022-10-06T17:51:49.175Z,12.26
2022-10-06T17:54:19.228Z,12.19
2022-10-06T17:56:48.188Z,12.25
2022-10-06T17:59:17.573Z,12.24
2022-10-06T18:01:44.998Z,12.23
2022-10-06T18:04:16.060Z,12.28
2022-10-06T18:06:43.814Z,12.26
2022-10-06T18:09:11.149Z,12.21
2022-10-06T18:11:38.853Z,12.13
2022-10-06T18:14:12.668Z,12.06
2022-10-06T18:16:42.200Z,11.99
2022-10-06T18:19:13.217Z,11.89
2022-10-06T18:21:42.149Z,11.86
2022-10-06T18:24:23.194Z,11.69
2022-10-06T18:26:51.356Z,11.67
2022-10-06T18:29:24.037Z,11.55
2022-10-06T18:31:52.144Z,11.53
2022-10-06T18:37:05.907Z,11.43
2022-10-06T18:39:33.428Z,11.37
2022-10-06T18:42:02.903Z,11.31
2022-10-06T18:44:48.649Z,11.32
2022-10-06T18:47:34.045Z,11.20
2022-10-06T18:50:00.661Z,11.15
2022-10-06T18:52:27.499Z,11.07
2022-10-06T18:54:54.003Z,11.02
2022-10-06T18:57:25.055Z,10.97
2022-10-06T18:59:53.402Z,10.96
2022-10-06T19:02:20.054Z,10.96
2022-10-06T19:04:47.950Z,10.97
2022-10-06T19:07:14.471Z,10.92
2022-10-06T19:09:46.170Z,10.87
2022-10-06T19:12:13.280Z,10.88
2022-10-06T19:14:46.970Z,10.78
2022-10-06T19:17:15.067Z,10.77
2022-10-06T19:19:51.054Z,10.75
2022-10-06T19:22:19.954Z,10.73
2022-10-06T19:24:48.471Z,10.72
2022-10-06T19:27:20.717Z,10.68
2022-10-06T19:29:54.255Z,10.64
2022-10-06T19:32:27.575Z,10.62
2022-10-06T19:34:58.744Z,10.63
2022-10-06T19:37:30.323Z,10.62
2022-10-06T19:39:57.294Z,10.60
2022-10-06T19:42:42.537Z,10.56
2022-10-06T19:45:11.669Z,10.53
2022-10-06T19:47:38.362Z,10.48
2022-10-06T19:50:11.262Z,10.43
2022-10-06T19:52:38.864Z,10.39
2022-10-06T19:55:05.646Z,10.29
2022-10-06T19:57:33.560Z,10.34
2022-10-06T20:00:00.402Z,10.29
2022-10-06T20:02:28.546Z,10.29
2022-10-06T20:04:55.032Z,10.29
2022-10-06T20:07:25.299Z,10.26
2022-10-06T20:09:51.780Z,10.17
2022-10-06T20:12:23.619Z,10.14
2022-10-06T20:14:51.261Z,10.07
2022-10-06T20:17:17.709Z,10.02
2022-10-06T20:19:44.201Z,10.02
2022-10-06T20:22:10.618Z,10.01
2022-10-06T20:24:37.063Z,9.99
2022-10-06T20:27:03.594Z,9.99
2022-10-06T20:29:31.494Z,9.94
2022-10-06T20:31:58.758Z,9.93
2022-10-06T20:34:31.827Z,9.94
2022-10-06T20:37:02.506Z,9.97
2022-10-06T20:39:49.716Z,9.88
2022-10-06T20:42:16.908Z,9.86
2022-10-06T20:44:44.269Z,9.85
2022-10-06T20:47:12.202Z,9.81
2022-10-06T20:49:39.195Z,9.72
2022-10-06T20:52:06.203Z,9.74
2022-10-06T20:54:35.389Z,9.72
2022-10-06T20:57:04.550Z,9.70
2022-10-06T20:59:32.055Z,9.73
2022-10-06T21:02:02.795Z,9.71
2022-10-06T21:04:29.459Z,9.70
2022-10-06T21:06:56.134Z,9.75
2022-10-06T21:09:24.300Z,9.70
2022-10-06T21:11:51.375Z,9.73
2022-10-06T21:14:18.269Z,9.78
2022-10-06T21:16:47.823Z,9.80
2022-10-06T21:19:16.789Z,9.80
2022-10-06T21:21:49.843Z,9.79
2022-10-06T21:24:16.712Z,9.84
2022-10-06T21:26:43.314Z,9.86
2022-10-06T21:29:11.580Z,9.89
2022-10-06T21:31:38.447Z,9.94
2022-10-06T21:34:05.169Z,9.91
2022-10-06T21:36:32.249Z,9.94
2022-10-06T21:39:01.387Z,10.02
2022-10-06T21:41:32.009Z,10.08
2022-10-06T21:44:00.878Z,10.14
2022-10-06T21:46:33.491Z,10.17
2022-10-06T21:49:02.465Z,10.17
2022-10-06T21:51:30.489Z,10.18
2022-10-06T21:53:58.800Z,10.18
2022-10-06T21:56:27.318Z,10.23
2022-10-06T21:58:55.919Z,10.28
2022-10-06T22:17:57.291Z,9.99
2022-10-06T22:20:23.918Z,10.03
2022-10-06T22:22:51.541Z,10.06
2022-10-06T22:25:18.165Z,10.14
2022-10-06T22:27:44.950Z,10.18
2022-10-06T22:30:12.501Z,10.23
2022-10-06T22:32:39.616Z,10.27
2022-10-06T22:35:07.332Z,10.31
2022-10-06T22:37:33.911Z,10.35
2022-10-06T22:40:04.083Z,10.37
2022-10-06T22:42:33.401Z,10.36
2022-10-06T22:44:59.912Z,10.39
2022-10-06T22:47:26.508Z,10.41
2022-10-06T22:49:52.989Z,10.41
2022-10-06T22:52:19.905Z,10.39
2022-10-06T22:54:46.500Z,10.42
2022-10-06T22:57:13.013Z,10.40
2022-10-06T22:59:40.385Z,10.42
2022-10-06T23:02:06.986Z,10.40
2022-10-06T23:04:33.682Z,10.39
2022-10-06T23:07:00.257Z,10.41
2022-10-06T23:09:27.003Z,10.36
2022-10-06T23:11:53.532Z,10.35
2022-10-06T23:14:20.288Z,10.29
2022-10-06T23:16:46.972Z,10.26
2022-10-06T23:19:13.743Z,10.28
2022-10-06T23:21:40.446Z,10.31
2022-10-06T23:24:07.667Z,10.28
2022-10-06T23:26:34.354Z,10.28
2022-10-06T23:29:02.477Z,10.27
2022-10-06T23:31:29.576Z,10.33
2022-10-06T23:33:56.681Z,10.25
2022-10-06T23:36:23.777Z,10.34
2022-10-06T23:38:50.569Z,10.33
2022-10-06T23:41:17.388Z,10.30
2022-10-06T23:43:44.189Z,10.26
2022-10-06T23:46:11.431Z,10.26
2022-10-06T23:48:38.122Z,10.15
2022-10-06T23:51:09.028Z,10.17
2022-10-06T23:53:36.050Z,10.26
2022-10-06T23:56:03.555Z,10.30
2022-10-06T23:58:30.218Z,10.35
